sensor_id;sensor_type;location;lat;lon;timestamp;pressure;altitude;pressure_sealevel;temperature;humidity
62111;BME280;48102;47.526;19.072;2023-04-06T03:40:32;100579.09;;;-1.79;100.00
62111;BME280;48102;47.526;19.072;2023-04-06T03:43:35;100583.34;;;-1.90;100.00
62111;BME280;48102;47.526;19.072;2023-04-06T03:46:39;100575.59;;;-1.96;100.00
62111;BME280;48102;47.526;19.072;2023-04-06T03:49:42;100583.38;;;-1.93;100.00
62111;BME280;48102;47.526;19.072;2023-04-06T03:52:46;100579.91;;;-1.91;100.00
62111;BME280;48102;47.526;19.072;2023-04-06T03:55:49;100578.16;;;-1.95;100.00
62111;BME280;48102;47.526;19.072;2023-04-06T03:58:52;100567.88;;;-1.87;100.00
62111;BME280;48102;47.526;19.072;2023-04-06T04:01:55;100575.63;;;-1.86;100.00
62111;BME280;48102;47.526;19.072;2023-04-06T04:04:58;100570.47;;;-1.87;100.00
62111;BME280;48102;47.526;19.072;2023-04-06T04:08:02;100565.31;;;-1.84;100.00
62111;BME280;48102;47.526;19.072;2023-04-06T04:11:05;100567.91;;;-1.83;100.00
62111;BME280;48102;47.526;19.072;2023-04-06T04:14:09;100567.06;;;-1.80;100.00
62111;BME280;48102;47.526;19.072;2023-04-06T04:17:12;100563.63;;;-1.73;100.00
62111;BME280;48102;47.526;19.072;2023-04-06T04:20:16;100555.91;;;-1.61;100.00
62111;BME280;48102;47.526;19.072;2023-04-06T04:23:19;100559.37;;;-1.62;100.00
62111;BME280;48102;47.526;19.072;2023-04-06T04:26:23;100554.22;;;-1.57;100.00
62111;BME280;48102;47.526;19.072;2023-04-06T04:29:26;100561.97;;;-1.54;100.00
62111;BME280;48102;47.526;19.072;2023-04-06T04:32:32;100555.94;;;-1.52;100.00
62111;BME280;48102;47.526;19.072;2023-04-06T04:35:35;100552.56;;;-1.34;100.00
62111;BME280;48102;47.526;19.072;2023-04-06T04:38:39;100548.25;;;-1.32;100.00
62111;BME280;48102;47.526;19.072;2023-04-06T04:41:42;100557.75;;;-1.29;100.00
62111;BME280;48102;47.526;19.072;2023-04-06T04:44:46;100551.72;;;-1.14;100.00
62111;BME280;48102;47.526;19.072;2023-04-06T04:47:50;100536.22;;;-0.91;100.00
62111;BME280;48102;47.526;19.072;2023-04-06T04:50:55;100537.09;;;-0.77;100.00
62111;BME280;48102;47.526;19.072;2023-04-06T04:53:59;100545.69;;;-0.63;99.70
62111;BME280;48102;47.526;19.072;2023-04-06T04:57:03;100548.25;;;-0.44;99.20
62111;BME280;48102;47.526;19.072;2023-04-06T05:00:08;100555.09;;;-0.22;96.78
62111;BME280;48102;47.526;19.072;2023-04-06T05:03:18;100550.75;;;-0.03;92.93
62111;BME280;48102;47.526;19.072;2023-04-06T05:06:28;100549.84;;;0.07;89.76
62111;BME280;48102;47.526;19.072;2023-04-06T05:09:31;100551.50;;;0.20;88.71
62111;BME280;48102;47.526;19.072;2023-04-06T05:12:35;100537.66;;;0.31;89.47
62111;BME280;48102;47.526;19.072;2023-04-06T05:15:38;100541.03;;;0.48;84.18
62111;BME280;48102;47.526;19.072;2023-04-06T05:18:43;100535.69;;;0.74;83.96
62111;BME280;48102;47.526;19.072;2023-04-06T05:21:47;100523.47;;;0.91;81.87
62111;BME280;48102;47.526;19.072;2023-04-06T05:24:50;100522.53;;;1.00;74.23
62111;BME280;48102;47.526;19.072;2023-04-06T05:27:53;100516.41;;;1.06;73.91
62111;BME280;48102;47.526;19.072;2023-04-06T05:30:59;100515.47;;;1.16;73.08
62111;BME280;48102;47.526;19.072;2023-04-06T05:34:03;100517.81;;;1.42;79.71
62111;BME280;48102;47.526;19.072;2023-04-06T05:37:06;100508.03;;;1.67;70.29
62111;BME280;48102;47.526;19.072;2023-04-06T05:40:10;100506.97;;;1.85;69.08
62111;BME280;48102;47.526;19.072;2023-04-06T05:43:14;100508.56;;;1.99;70.00
62111;BME280;48102;47.526;19.072;2023-04-06T05:46:17;100497.34;;;1.94;64.06
62111;BME280;48102;47.526;19.072;2023-04-06T05:49:21;100503.16;;;2.15;67.79
62111;BME280;48102;47.526;19.072;2023-04-06T05:52:23;100499.41;;;2.36;69.52
62111;BME280;48102;47.526;19.072;2023-04-06T05:55:26;100500.12;;;2.45;64.88
62111;BME280;48102;47.526;19.072;2023-04-06T05:58:31;100497.44;;;2.53;63.81
62111;BME280;48102;47.526;19.072;2023-04-06T06:01:35;100497.38;;;2.56;62.02
62111;BME280;48102;47.526;19.072;2023-04-06T06:04:40;100496.34;;;2.68;62.12
62111;BME280;48102;47.526;19.072;2023-04-06T06:07:43;100499.84;;;2.65;60.00
62111;BME280;48102;47.526;19.072;2023-04-06T06:10:46;100490.31;;;2.66;59.85
62111;BME280;48102;47.526;19.072;2023-04-06T06:13:50;100486.81;;;2.68;61.35
62111;BME280;48102;47.526;19.072;2023-04-06T06:16:54;100488.25;;;2.86;58.91
62111;BME280;48102;47.526;19.072;2023-04-06T06:19:57;100488.94;;;2.97;57.00
62111;BME280;48102;47.526;19.072;2023-04-06T06:23:01;100489.66;;;3.06;57.60
62111;BME280;48102;47.526;19.072;2023-04-06T06:26:09;100479.25;;;3.06;56.74
62111;BME280;48102;47.526;19.072;2023-04-06T06:29:12;100478.09;;;3.22;57.47
62111;BME280;48102;47.526;19.072;2023-04-06T06:32:16;100478.59;;;3.44;55.29
62111;BME280;48102;47.526;19.072;2023-04-06T06:35:20;100470.31;;;3.67;52.78
62111;BME280;48102;47.526;19.072;2023-04-06T06:38:23;100468.38;;;3.78;54.81
62111;BME280;48102;47.526;19.072;2023-04-06T06:41:26;100462.53;;;4.09;54.88
62111;BME280;48102;47.526;19.072;2023-04-06T06:44:30;100463.59;;;4.39;53.58
62111;BME280;48102;47.526;19.072;2023-04-06T06:47:33;100458.63;;;4.67;52.03
62111;BME280;48102;47.526;19.072;2023-04-06T06:50:36;100461.13;;;4.70;49.45
62111;BME280;48102;47.526;19.072;2023-04-06T06:53:40;100458.28;;;4.81;46.89
62111;BME280;48102;47.526;19.072;2023-04-06T06:56:42;100451.91;;;4.92;48.09
62111;BME280;48102;47.526;19.072;2023-04-06T06:59:46;100454.97;;;5.08;48.30
62111;BME280;48102;47.526;19.072;2023-04-06T07:02:50;100454.66;;;5.20;45.97
62111;BME280;48102;47.526;19.072;2023-04-06T07:05:53;100453.56;;;5.29;47.53
62111;BME280;48102;47.526;19.072;2023-04-06T07:08:56;100453.19;;;5.43;45.92
62111;BME280;48102;47.526;19.072;2023-04-06T07:11:59;100452.28;;;5.45;45.22
62111;BME280;48102;47.526;19.072;2023-04-06T07:15:03;100457.19;;;5.56;46.07
62111;BME280;48102;47.526;19.072;2023-04-06T07:18:08;100453.72;;;5.56;45.09
62111;BME280;48102;47.526;19.072;2023-04-06T07:21:12;100449.47;;;5.83;44.68
62111;BME280;48102;47.526;19.072;2023-04-06T07:24:15;100455.53;;;5.85;44.39
62111;BME280;48102;47.526;19.072;2023-04-06T07:27:18;100458.28;;;6.11;44.84
62111;BME280;48102;47.526;19.072;2023-04-06T07:30:22;100449.34;;;6.18;45.71
62111;BME280;48102;47.526;19.072;2023-04-06T07:33:25;100452.41;;;6.61;44.23
62111;BME280;48102;47.526;19.072;2023-04-06T07:36:32;100452.00;;;6.73;44.96
62111;BME280;48102;47.526;19.072;2023-04-06T07:39:35;100449.41;;;6.99;43.34
62111;BME280;48102;47.526;19.072;2023-04-06T07:42:39;100448.38;;;7.30;42.20
62111;BME280;48102;47.526;19.072;2023-04-06T07:45:43;100443.78;;;7.10;41.82
62111;BME280;48102;47.526;19.072;2023-04-06T07:48:48;100444.97;;;7.26;43.53
62111;BME280;48102;47.526;19.072;2023-04-06T07:51:53;100437.84;;;7.05;42.03
62111;BME280;48102;47.526;19.072;2023-04-06T07:54:57;100444.16;;;7.24;42.06
62111;BME280;48102;47.526;19.072;2023-04-06T07:58:00;100450.25;;;7.50;42.34
62111;BME280;48102;47.526;19.072;2023-04-06T08:01:04;100443.25;;;7.50;41.95
62111;BME280;48102;47.526;19.072;2023-04-06T08:04:08;100434.94;;;7.39;40.73
62111;BME280;48102;47.526;19.072;2023-04-06T08:07:11;100429.69;;;7.14;42.17
62111;BME280;48102;47.526;19.072;2023-04-06T08:10:14;100440.69;;;7.49;43.21
62111;BME280;48102;47.526;19.072;2023-04-06T08:13:16;100435.47;;;7.72;42.03
62111;BME280;48102;47.526;19.072;2023-04-06T08:16:20;100439.31;;;7.87;41.91
62111;BME280;48102;47.526;19.072;2023-04-06T08:19:23;100434.56;;;7.97;40.78
62111;BME280;48102;47.526;19.072;2023-04-06T08:22:26;100429.72;;;8.10;41.38
62111;BME280;48102;47.526;19.072;2023-04-06T08:25:29;100436.28;;;8.21;42.09
62111;BME280;48102;47.526;19.072;2023-04-06T08:28:32;100426.63;;;7.98;39.75
62111;BME280;48102;47.526;19.072;2023-04-06T08:31:36;100420.84;;;8.58;41.36
62111;BME280;48102;47.526;19.072;2023-04-06T08:34:40;100415.53;;;8.37;39.74
62111;BME280;48102;47.526;19.072;2023-04-06T08:37:43;100425.03;;;7.94;39.09
62111;BME280;48102;47.526;19.072;2023-04-06T08:40:48;100419.75;;;8.41;40.75
62111;BME280;48102;47.526;19.072;2023-04-06T08:43:58;100420.78;;;9.01;40.79
62111;BME280;48102;47.526;19.072;2023-04-06T08:47:04;100408.00;;;9.35;38.61
62111;BME280;48102;47.526;19.072;2023-04-06T08:50:09;100412.56;;;9.89;38.94
62111;BME280;48102;47.526;19.072;2023-04-06T08:53:15;100407.16;;;10.11;37.53
62111;BME280;48102;47.526;19.072;2023-04-06T08:56:18;100414.22;;;10.11;37.41
62111;BME280;48102;47.526;19.072;2023-04-06T08:59:23;100400.38;;;10.05;38.69
62111;BME280;48102;47.526;19.072;2023-04-06T09:02:27;100400.81;;;9.38;37.22
62111;BME280;48102;47.526;19.072;2023-04-06T09:05:30;100393.41;;;9.67;37.35
62111;BME280;48102;47.526;19.072;2023-04-06T09:08:35;100399.37;;;9.70;36.90
62111;BME280;48102;47.526;19.072;2023-04-06T09:11:49;100404.06;;;9.24;37.30
62111;BME280;48102;47.526;19.072;2023-04-06T09:14:53;100397.28;;;9.58;37.40
62111;BME280;48102;47.526;19.072;2023-04-06T09:17:56;100389.87;;;9.68;36.42
62111;BME280;48102;47.526;19.072;2023-04-06T09:21:05;100396.44;;;9.58;35.47
62111;BME280;48102;47.526;19.072;2023-04-06T09:24:08;100391.56;;;9.88;34.63
62111;BME280;48102;47.526;19.072;2023-04-06T09:27:13;100391.88;;;10.19;36.12
62111;BME280;48102;47.526;19.072;2023-04-06T09:30:16;100383.19;;;9.98;35.23
62111;BME280;48102;47.526;19.072;2023-04-06T09:33:24;100381.06;;;10.07;33.44
62111;BME280;48102;47.526;19.072;2023-04-06T09:36:35;100380.34;;;10.41;33.81
62111;BME280;48102;47.526;19.072;2023-04-06T09:39:44;100380.34;;;10.41;34.51
62111;BME280;48102;47.526;19.072;2023-04-06T09:42:49;100379.97;;;10.29;34.20
62111;BME280;48102;47.526;19.072;2023-04-06T09:45:58;100380.50;;;10.55;34.01
62111;BME280;48102;47.526;19.072;2023-04-06T09:49:03;100372.37;;;10.60;32.55
62111;BME280;48102;47.526;19.072;2023-04-06T09:52:07;100374.88;;;10.63;34.03
62111;BME280;48102;47.526;19.072;2023-04-06T09:55:12;100374.09;;;10.95;34.88
62111;BME280;48102;47.526;19.072;2023-04-06T09:58:22;100366.31;;;11.27;32.60
62111;BME280;48102;47.526;19.072;2023-04-06T10:01:32;100372.16;;;10.82;33.37
62111;BME280;48102;47.526;19.072;2023-04-06T10:04:41;100364.91;;;11.20;32.24
62111;BME280;48102;47.526;19.072;2023-04-06T10:07:47;100361.31;;;11.38;32.40
62111;BME280;48102;47.526;19.072;2023-04-06T10:11:03;100359.66;;;12.02;31.67
62111;BME280;48102;47.526;19.072;2023-04-06T10:14:05;100361.09;;;12.39;31.93
62111;BME280;48102;47.526;19.072;2023-04-06T10:17:09;100359.50;;;12.67;31.32
62111;BME280;48102;47.526;19.072;2023-04-06T10:23:51;100348.13;;;12.65;30.56
62111;BME280;48102;47.526;19.072;2023-04-06T10:26:58;100353.28;;;12.52;31.27
62111;BME280;48102;47.526;19.072;2023-04-06T10:30:05;100335.56;;;12.84;30.54
62111;BME280;48102;47.526;19.072;2023-04-06T10:33:19;100334.56;;;12.71;30.87
62111;BME280;48102;47.526;19.072;2023-04-06T10:36:35;100328.72;;;12.66;30.39
62111;BME280;48102;47.526;19.072;2023-04-06T10:39:54;100327.66;;;12.38;30.27
62111;BME280;48102;47.526;19.072;2023-04-06T10:43:10;100333.88;;;12.53;31.02
62111;BME280;48102;47.526;19.072;2023-04-06T10:46:12;100317.34;;;12.34;30.36
62111;BME280;48102;47.526;19.072;2023-04-06T10:49:18;100320.81;;;12.50;29.42
62111;BME280;48102;47.526;19.072;2023-04-06T10:52:21;100326.38;;;12.45;30.01
62111;BME280;48102;47.526;19.072;2023-04-06T10:55:27;100329.25;;;12.57;30.75
62111;BME280;48102;47.526;19.072;2023-04-06T10:58:32;100316.72;;;13.04;30.01
62111;BME280;48102;47.526;19.072;2023-04-06T11:01:35;100313.62;;;13.41;29.86
62111;BME280;48102;47.526;19.072;2023-04-06T11:04:38;100316.09;;;12.99;27.91
62111;BME280;48102;47.526;19.072;2023-04-06T11:07:41;100314.50;;;12.52;29.31
62111;BME280;48102;47.526;19.072;2023-04-06T11:10:44;100315.50;;;12.20;28.62
62111;BME280;48102;47.526;19.072;2023-04-06T11:13:53;100321.31;;;12.57;29.80
62111;BME280;48102;47.526;19.072;2023-04-06T11:16:56;100306.34;;;12.71;28.20
62111;BME280;48102;47.526;19.072;2023-04-06T11:20:00;100306.94;;;12.46;27.66
62111;BME280;48102;47.526;19.072;2023-04-06T11:23:03;100308.72;;;12.46;29.84
62111;BME280;48102;47.526;19.072;2023-04-06T11:26:10;100298.34;;;12.87;28.36
62111;BME280;48102;47.526;19.072;2023-04-06T11:29:13;100298.94;;;13.06;28.85
62111;BME280;48102;47.526;19.072;2023-04-06T11:32:22;100296.31;;;13.49;28.78
62111;BME280;48102;47.526;19.072;2023-04-06T11:35:25;100293.19;;;13.57;28.36
62111;BME280;48102;47.526;19.072;2023-04-06T11:38:29;100286.75;;;14.02;26.98
62111;BME280;48102;47.526;19.072;2023-04-06T11:41:39;100291.19;;;14.56;28.63
62111;BME280;48102;47.526;19.072;2023-04-06T11:44:43;100285.38;;;14.37;27.74
62111;BME280;48102;47.526;19.072;2023-04-06T11:48:00;100285.28;;;14.65;27.55
62111;BME280;48102;47.526;19.072;2023-04-06T11:51:04;100288.22;;;14.61;26.81
62111;BME280;48102;47.526;19.072;2023-04-06T11:54:07;100277.53;;;14.35;26.73
62111;BME280;48102;47.526;19.072;2023-04-06T11:57:10;100279.88;;;14.00;27.12
62111;BME280;48102;47.526;19.072;2023-04-06T12:00:13;100272.34;;;13.79;28.23
62111;BME280;48102;47.526;19.072;2023-04-06T12:03:19;100269.47;;;13.41;27.96
62111;BME280;48102;47.526;19.072;2023-04-06T12:06:22;100267.75;;;12.97;29.01
62111;BME280;48102;47.526;19.072;2023-04-06T12:09:25;100276.41;;;12.11;29.49
62111;BME280;48102;47.526;19.072;2023-04-06T12:12:28;100274.19;;;11.71;30.51
62111;BME280;48102;47.526;19.072;2023-04-06T12:15:31;100272.75;;;11.66;30.12
62111;BME280;48102;47.526;19.072;2023-04-06T12:18:34;100276.94;;;11.21;31.72
62111;BME280;48102;47.526;19.072;2023-04-06T12:21:37;100274.78;;;11.12;30.79
62111;BME280;48102;47.526;19.072;2023-04-06T12:24:40;100265.22;;;10.93;29.97
62111;BME280;48102;47.526;19.072;2023-04-06T12:27:43;100263.94;;;11.00;31.35
62111;BME280;48102;47.526;19.072;2023-04-06T12:30:47;100268.19;;;11.20;30.88
62111;BME280;48102;47.526;19.072;2023-04-06T12:33:50;100270.97;;;12.14;30.62
62111;BME280;48102;47.526;19.072;2023-04-06T12:36:53;100259.06;;;13.52;29.37
62111;BME280;48102;47.526;19.072;2023-04-06T12:39:56;100263.28;;;14.63;28.10
62111;BME280;48102;47.526;19.072;2023-04-06T12:42:59;100260.22;;;14.57;27.66
62111;BME280;48102;47.526;19.072;2023-04-06T12:46:02;100253.84;;;14.19;27.63
62111;BME280;48102;47.526;19.072;2023-04-06T12:49:05;100254.16;;;13.88;29.08
62111;BME280;48102;47.526;19.072;2023-04-06T12:52:08;100249.88;;;13.58;28.88
62111;BME280;48102;47.526;19.072;2023-04-06T12:55:10;100247.66;;;13.23;28.74
62111;BME280;48102;47.526;19.072;2023-04-06T12:58:13;100247.56;;;13.39;29.55
62111;BME280;48102;47.526;19.072;2023-04-06T13:01:16;100244.16;;;13.37;29.14
62111;BME280;48102;47.526;19.072;2023-04-06T13:04:19;100246.00;;;13.21;29.65
62111;BME280;48102;47.526;19.072;2023-04-06T13:07:22;100251.25;;;13.37;31.02
62111;BME280;48102;47.526;19.072;2023-04-06T13:10:26;100253.78;;;13.52;30.74
62111;BME280;48102;47.526;19.072;2023-04-06T13:13:29;100243.94;;;13.54;30.01
62111;BME280;48102;47.526;19.072;2023-04-06T13:16:33;100250.37;;;13.50;30.68
62111;BME280;48102;47.526;19.072;2023-04-06T13:19:36;100252.94;;;13.52;30.84
62111;BME280;48102;47.526;19.072;2023-04-06T13:22:38;100242.25;;;13.11;29.43
62111;BME280;48102;47.526;19.072;2023-04-06T13:25:42;100245.91;;;12.65;31.52
62111;BME280;48102;47.526;19.072;2023-04-06T13:28:45;100237.88;;;12.67;31.92
62111;BME280;48102;47.526;19.072;2023-04-06T13:31:47;100249.72;;;12.15;31.86
62111;BME280;48102;47.526;19.072;2023-04-06T13:34:54;100248.84;;;12.00;33.99
62111;BME280;48102;47.526;19.072;2023-04-06T13:37:58;100251.78;;;11.78;32.54
62111;BME280;48102;47.526;19.072;2023-04-06T13:41:01;100255.34;;;11.77;33.95
62111;BME280;48102;47.526;19.072;2023-04-06T13:44:03;100255.09;;;11.82;34.85
62111;BME280;48102;47.526;19.072;2023-04-06T13:47:07;100262.25;;;11.33;34.35
62111;BME280;48102;47.526;19.072;2023-04-06T13:50:10;100259.72;;;10.98;36.38
62111;BME280;48102;47.526;19.072;2023-04-06T13:53:13;100245.66;;;11.46;35.79
62111;BME280;48102;47.526;19.072;2023-04-06T13:56:16;100238.00;;;11.73;34.85
62111;BME280;48102;47.526;19.072;2023-04-06T13:59:19;100235.31;;;12.21;35.57
62111;BME280;48102;47.526;19.072;2023-04-06T14:02:22;100233.09;;;12.43;34.54
62111;BME280;48102;47.526;19.072;2023-04-06T14:05:33;100224.41;;;12.27;33.93
62111;BME280;48102;47.526;19.072;2023-04-06T14:08:35;100214.94;;;12.23;32.20
62111;BME280;48102;47.526;19.072;2023-04-06T14:11:38;100228.78;;;11.65;33.34
62111;BME280;48102;47.526;19.072;2023-04-06T14:14:41;100227.37;;;11.27;34.21
62111;BME280;48102;47.526;19.072;2023-04-06T14:17:44;100223.44;;;11.35;35.44
62111;BME280;48102;47.526;19.072;2023-04-06T14:20:55;100226.97;;;11.18;36.15
62111;BME280;48102;47.526;19.072;2023-04-06T14:23:58;100222.28;;;10.41;35.43
62111;BME280;48102;47.526;19.072;2023-04-06T14:27:01;100224.41;;;10.67;36.08
62111;BME280;48102;47.526;19.072;2023-04-06T14:30:05;100227.09;;;10.83;35.78
62111;BME280;48102;47.526;19.072;2023-04-06T14:33:11;100230.91;;;10.77;36.63
62111;BME280;48102;47.526;19.072;2023-04-06T14:36:14;100226.25;;;10.65;36.01
62111;BME280;48102;47.526;19.072;2023-04-06T14:39:18;100228.66;;;10.18;35.64
62111;BME280;48102;47.526;19.072;2023-04-06T14:42:21;100229.91;;;10.11;37.15
62111;BME280;48102;47.526;19.072;2023-04-06T14:45:23;100233.31;;;10.13;36.99
62111;BME280;48102;47.526;19.072;2023-04-06T14:48:27;100246.75;;;9.89;37.76
62111;BME280;48102;47.526;19.072;2023-04-06T14:51:30;100238.19;;;9.29;39.30
62111;BME280;48102;47.526;19.072;2023-04-06T14:54:33;100241.38;;;9.17;40.20
62111;BME280;48102;47.526;19.072;2023-04-06T14:57:36;100243.38;;;9.30;40.47
62111;BME280;48102;47.526;19.072;2023-04-06T15:00:42;100247.19;;;9.23;41.30
62111;BME280;48102;47.526;19.072;2023-04-06T15:03:44;100241.94;;;9.23;42.48
62111;BME280;48102;47.526;19.072;2023-04-06T15:06:48;100260.53;;;9.00;42.69
62111;BME280;48102;47.526;19.072;2023-04-06T15:09:50;100267.28;;;9.05;45.11
62111;BME280;48102;47.526;19.072;2023-04-06T15:12:53;100277.25;;;8.99;46.23
62111;BME280;48102;47.526;19.072;2023-04-06T15:15:56;100262.97;;;8.84;47.74
62111;BME280;48102;47.526;19.072;2023-04-06T15:19:02;100260.63;;;8.98;47.64
